createdAt,value
2022-10-02T00:02:25.385Z,100636.59
2022-10-02T00:05:13.101Z,100629.28
2022-10-02T00:07:59.499Z,100641.25
2022-10-02T00:10:55.529Z,100643.41
2022-10-02T00:13:27.444Z,100640.91
2022-10-02T00:15:55.465Z,100644.59
2022-10-02T00:18:30.162Z,100638.63
2022-10-02T00:21:20.607Z,100653.94
2022-10-02T00:23:56.986Z,100652.28
2022-10-02T00:26:46.585Z,100655.38
2022-10-02T00:30:02.439Z,100651.38
2022-10-02T00:32:49.214Z,100655.22
2022-10-02T00:35:37.328Z,100661.59
2022-10-02T00:38:20.152Z,100659.34
2022-10-02T00:41:08.653Z,100653.88
2022-10-02T00:44:08.546Z,100650.94
2022-10-02T00:46:45.259Z,100653.81
2022-10-02T00:49:44.864Z,100661.00
2022-10-02T00:52:21.651Z,100665.34
2022-10-02T00:55:26.738Z,100662.78
2022-10-02T00:58:17.628Z,100649.00
2022-10-02T01:00:53.058Z,100655.22
2022-10-02T01:03:34.312Z,100653.72
2022-10-02T01:06:00.807Z,100662.06
2022-10-02T01:08:27.990Z,100650.84
2022-10-02T01:10:54.633Z,100653.66
2022-10-02T01:13:21.649Z,100640.88
2022-10-02T01:15:54.771Z,100647.63
2022-10-02T01:18:22.020Z,100648.09
2022-10-02T01:20:51.430Z,100639.50
2022-10-02T01:23:42.273Z,100642.06
2022-10-02T01:26:08.885Z,100646.88
2022-10-02T01:28:35.503Z,100644.41
2022-10-02T01:31:16.134Z,100641.03
2022-10-02T01:33:45.067Z,100652.38
2022-10-02T01:36:13.561Z,100658.47
2022-10-02T01:38:41.772Z,100661.34
2022-10-02T01:41:11.851Z,100672.63
2022-10-02T01:43:43.516Z,100673.66
2022-10-02T01:46:20.978Z,100672.13
2022-10-02T01:48:59.775Z,100666.75
2022-10-02T01:51:41.137Z,100660.47
2022-10-02T01:54:35.619Z,100653.72
2022-10-02T01:57:23.529Z,100661.72
2022-10-02T02:00:12.239Z,100661.03
2022-10-02T02:03:01.088Z,100664.53
2022-10-02T02:05:50.266Z,100669.63
2022-10-02T02:08:35.891Z,100672.19
2022-10-02T02:11:13.246Z,100664.78
2022-10-02T02:13:58.316Z,100659.59
2022-10-02T02:16:38.283Z,100658.72
2022-10-02T02:19:13.392Z,100666.81
2022-10-02T02:21:48.455Z,100664.59
2022-10-02T02:24:38.609Z,100662.88
2022-10-02T02:27:06.368Z,100665.25
2022-10-02T02:29:37.394Z,100664.19
2022-10-02T02:32:09.719Z,100661.63
2022-10-02T02:34:44.188Z,100656.88
2022-10-02T02:37:16.629Z,100640.28
2022-10-02T02:40:09.242Z,100655.50
2022-10-02T02:42:46.146Z,100647.78
2022-10-02T02:45:18.757Z,100659.22
2022-10-02T02:47:55.070Z,100660.22
2022-10-02T02:50:40.570Z,100670.31
2022-10-02T02:53:13.150Z,100661.41
2022-10-02T02:55:48.089Z,100665.41
2022-10-02T02:58:40.505Z,100661.78
2022-10-02T03:01:07.412Z,100665.41
2022-10-02T03:03:34.010Z,100648.00
2022-10-02T03:06:14.329Z,100674.16
2022-10-02T03:08:40.894Z,100671.81
2022-10-02T03:11:32.325Z,100665.41
2022-10-02T03:14:17.781Z,100668.38
2022-10-02T03:17:10.636Z,100664.84
2022-10-02T03:19:43.256Z,100663.69
2022-10-02T03:22:41.496Z,100651.97
2022-10-02T03:25:15.576Z,100654.63
2022-10-02T03:27:45.269Z,100645.47
2022-10-02T03:30:14.172Z,100645.41
2022-10-02T03:32:46.014Z,100640.25
2022-10-02T03:35:13.953Z,100634.69
2022-10-02T03:37:46.959Z,100624.41
2022-10-02T03:40:13.463Z,100627.09
2022-10-02T03:42:40.237Z,100635.53
2022-10-02T03:45:07.262Z,100650.44
2022-10-02T03:47:33.705Z,100644.31
2022-10-02T03:50:00.195Z,100652.06
2022-10-02T03:52:28.392Z,100666.16
2022-10-02T03:55:03.751Z,100668.13
2022-10-02T03:57:33.757Z,100666.44
2022-10-02T04:00:12.431Z,100687.59
2022-10-02T04:02:48.437Z,100674.16
2022-10-02T04:05:22.627Z,100673.91
2022-10-02T04:07:54.458Z,100669.63
2022-10-02T04:11:00.205Z,100670.09
2022-10-02T04:13:51.263Z,100665.50
2022-10-02T04:16:33.390Z,100670.03
2022-10-02T04:19:14.459Z,100660.13
2022-10-02T04:21:54.526Z,100651.66
2022-10-02T04:24:33.670Z,100670.03
2022-10-02T04:27:18.306Z,100661.00
2022-10-02T04:29:51.224Z,100675.88
2022-10-02T04:32:25.347Z,100670.13
2022-10-02T04:34:52.648Z,100662.63
2022-10-02T04:37:35.067Z,100662.56
2022-10-02T04:40:07.656Z,100672.81
2022-10-02T04:42:53.673Z,100670.03
2022-10-02T04:46:01.887Z,100679.34
2022-10-02T04:48:37.091Z,100676.38
2022-10-02T04:51:17.111Z,100673.25
2022-10-02T04:53:49.252Z,100670.47
2022-10-02T04:56:23.855Z,100682.38
2022-10-02T04:59:00.170Z,100683.53
2022-10-02T05:02:04.108Z,100682.34
2022-10-02T05:04:44.096Z,100675.47
2022-10-02T05:07:16.401Z,100674.59
2022-10-02T05:10:20.621Z,100660.31
2022-10-02T05:13:02.279Z,100663.25
2022-10-02T05:16:02.983Z,100667.72
2022-10-02T05:19:01.516Z,100659.38
2022-10-02T05:21:40.208Z,100664.00
2022-10-02T05:24:27.835Z,100665.84
2022-10-02T05:27:03.614Z,100677.84
2022-10-02T05:29:45.393Z,100679.81
2022-10-02T05:32:24.344Z,100671.00
2022-10-02T05:34:57.404Z,100670.03
2022-10-02T05:37:49.006Z,100669.94
2022-10-02T05:40:36.402Z,100668.53
2022-10-02T05:43:15.101Z,100670.63
2022-10-02T05:45:52.170Z,100676.75
2022-10-02T05:48:37.361Z,100688.97
2022-10-02T05:51:13.628Z,100698.13
2022-10-02T05:53:50.311Z,100696.66
2022-10-02T05:56:40.899Z,100696.66
2022-10-02T05:59:43.392Z,100688.31
2022-10-02T06:02:30.353Z,100695.00
2022-10-02T06:05:05.864Z,100692.41
2022-10-02T06:07:33.377Z,100695.78
2022-10-02T06:10:12.045Z,100699.19
2022-10-02T06:12:44.355Z,100692.63
2022-10-02T06:15:28.574Z,100690.41
2022-10-02T06:18:07.379Z,100675.81
2022-10-02T06:20:46.134Z,100682.19
2022-10-02T06:23:22.682Z,100680.13
2022-10-02T06:25:53.919Z,100680.66
2022-10-02T06:28:51.568Z,100683.28
2022-10-02T06:31:43.563Z,100682.88
2022-10-02T06:34:12.828Z,100690.94
2022-10-02T06:36:51.691Z,100689.72
2022-10-02T06:39:36.177Z,100694.56
2022-10-02T06:42:23.899Z,100685.53
2022-10-02T06:45:08.542Z,100691.94
2022-10-02T06:47:50.242Z,100706.06
2022-10-02T06:50:32.059Z,100704.91
2022-10-02T06:53:09.293Z,100710.06
2022-10-02T06:55:53.489Z,100705.81
2022-10-02T06:58:30.057Z,100709.19
2022-10-02T07:01:06.343Z,100707.97
2022-10-02T07:03:32.864Z,100721.88
2022-10-02T07:06:14.494Z,100721.84
2022-10-02T07:09:07.226Z,100705.56
2022-10-02T07:12:08.228Z,100707.53
2022-10-02T07:14:54.916Z,100721.25
2022-10-02T07:17:49.769Z,100718.56
2022-10-02T07:20:16.230Z,100715.78
2022-10-02T07:23:01.783Z,100715.38
2022-10-02T07:25:46.520Z,100717.13
2022-10-02T07:28:34.854Z,100725.03
2022-10-02T07:31:12.837Z,100719.31
2022-10-02T07:33:45.325Z,100722.47
2022-10-02T07:36:16.446Z,100712.91
2022-10-02T07:39:01.201Z,100715.19
2022-10-02T07:41:46.494Z,100730.88
2022-10-02T07:44:30.100Z,100722.50
2022-10-02T07:47:10.442Z,100722.56
2022-10-02T07:49:55.694Z,100726.53
2022-10-02T07:52:59.373Z,100720.75
2022-10-02T07:55:26.547Z,100728.22
2022-10-02T07:58:11.663Z,100732.63
2022-10-02T08:00:54.517Z,100733.28
2022-10-02T08:03:25.608Z,100733.97
2022-10-02T08:05:56.352Z,100737.38
2022-10-02T08:08:39.336Z,100735.94
2022-10-02T08:11:14.449Z,100735.53
2022-10-02T08:13:55.266Z,100734.44
2022-10-02T08:16:28.430Z,100737.09
2022-10-02T08:19:01.531Z,100738.19
2022-10-02T08:21:32.877Z,100738.28
2022-10-02T08:24:04.166Z,100750.09
2022-10-02T08:26:36.068Z,100743.59
2022-10-02T08:29:20.595Z,100737.16
2022-10-02T08:31:47.843Z,100732.25
2022-10-02T08:34:20.984Z,100733.56
2022-10-02T08:36:59.382Z,100726.63
2022-10-02T08:39:37.867Z,100738.22
2022-10-02T08:42:29.021Z,100738.25
2022-10-02T08:45:26.739Z,100735.16
2022-10-02T08:48:02.146Z,100735.25
2022-10-02T08:50:59.106Z,100738.34
2022-10-02T08:54:03.402Z,100744.63
2022-10-02T08:57:23.950Z,100748.41
2022-10-02T09:00:07.867Z,100751.97
2022-10-02T09:03:12.994Z,100754.69
2022-10-02T09:06:11.838Z,100760.28
2022-10-02T09:09:13.170Z,100763.31
2022-10-02T09:11:39.628Z,100755.72
2022-10-02T09:14:18.867Z,100753.13
2022-10-02T09:17:16.948Z,100748.91
2022-10-02T09:20:13.248Z,100751.38
2022-10-02T09:22:58.910Z,100754.50
2022-10-02T09:25:37.489Z,100742.44
2022-10-02T09:28:18.694Z,100750.28
2022-10-02T09:31:06.657Z,100746.75
2022-10-02T09:34:01.937Z,100752.28
2022-10-02T09:36:34.796Z,100746.75
2022-10-02T09:39:35.136Z,100746.94
2022-10-02T09:42:19.962Z,100747.19
2022-10-02T09:45:21.137Z,100742.22
2022-10-02T09:47:51.541Z,100736.81
2022-10-02T09:50:39.746Z,100742.63
2022-10-02T09:53:26.567Z,100745.94
2022-10-02T09:56:17.812Z,100739.22
2022-10-02T09:58:59.078Z,100739.53
2022-10-02T10:01:47.441Z,100730.41
2022-10-02T10:05:04.603Z,100733.63
2022-10-02T10:07:59.760Z,100729.25
2022-10-02T10:11:03.794Z,100739.88
2022-10-02T10:13:52.041Z,100728.53
2022-10-02T10:16:38.243Z,100730.50
2022-10-02T10:19:29.840Z,100733.66
2022-10-02T10:22:15.368Z,100736.09
2022-10-02T10:25:03.206Z,100731.34
2022-10-02T10:27:49.088Z,100732.03
2022-10-02T10:30:55.298Z,100730.06
2022-10-02T10:33:27.969Z,100731.31
2022-10-02T10:36:46.748Z,100743.91
2022-10-02T10:39:32.050Z,100751.16
2022-10-02T10:42:24.301Z,100750.03
2022-10-02T10:45:06.017Z,100759.88
2022-10-02T10:48:02.213Z,100756.28
2022-10-02T10:50:46.549Z,100744.19
2022-10-02T10:53:33.922Z,100758.06
2022-10-02T10:56:19.304Z,100758.28
2022-10-02T10:59:06.306Z,100767.47
2022-10-02T11:02:22.997Z,100768.97
2022-10-02T11:05:06.655Z,100769.75
2022-10-02T11:08:06.124Z,100767.25
2022-10-02T11:10:41.492Z,100762.16
2022-10-02T11:13:20.190Z,100771.25
2022-10-02T11:16:07.288Z,100773.63
2022-10-02T11:18:39.692Z,100768.81
2022-10-02T11:21:21.851Z,100767.56
2022-10-02T11:24:13.620Z,100757.56
2022-10-02T11:26:43.096Z,100762.53
2022-10-02T11:29:15.589Z,100764.59
2022-10-02T11:31:58.383Z,100761.25
2022-10-02T11:35:02.890Z,100767.09
2022-10-02T11:37:54.562Z,100774.41
2022-10-02T11:40:26.873Z,100779.38
2022-10-02T11:43:02.202Z,100788.09
2022-10-02T11:46:02.904Z,100786.75
2022-10-02T11:48:33.145Z,100786.84
2022-10-02T11:51:18.471Z,100785.78
2022-10-02T11:53:57.616Z,100777.38
2022-10-02T11:56:31.094Z,100783.50
2022-10-02T11:59:22.974Z,100780.00
2022-10-02T12:01:58.387Z,100784.34
2022-10-02T12:05:05.813Z,100783.53
2022-10-02T12:07:46.282Z,100777.69
2022-10-02T12:10:28.465Z,100776.13
2022-10-02T12:13:27.007Z,100782.28
2022-10-02T12:16:02.459Z,100781.19
2022-10-02T12:18:42.896Z,100771.13
2022-10-02T12:21:31.104Z,100772.81
2022-10-02T12:24:35.091Z,100774.41
2022-10-02T12:27:15.800Z,100774.09
2022-10-02T12:29:55.571Z,100778.19
2022-10-02T12:32:38.393Z,100768.81
2022-10-02T12:35:27.535Z,100774.47
2022-10-02T12:38:30.885Z,100766.22
2022-10-02T12:41:17.423Z,100763.63
2022-10-02T12:44:00.775Z,100763.31
2022-10-02T12:46:47.448Z,100754.84
2022-10-02T12:49:47.277Z,100753.44
2022-10-02T12:52:13.694Z,100752.59
2022-10-02T12:55:17.514Z,100755.81
2022-10-02T12:57:58.852Z,100752.78
2022-10-02T13:00:37.567Z,100758.19
2022-10-02T13:03:26.383Z,100752.44
2022-10-02T13:05:55.631Z,100763.44
2022-10-02T13:08:35.229Z,100756.69
2022-10-02T13:11:10.721Z,100764.31
2022-10-02T13:13:46.118Z,100763.19
2022-10-02T13:16:31.074Z,100752.78
2022-10-02T13:19:16.330Z,100761.25
2022-10-02T13:22:03.957Z,100765.81
2022-10-02T13:24:58.602Z,100761.47
2022-10-02T13:27:59.605Z,100754.19
2022-10-02T13:30:33.738Z,100763.00
2022-10-02T13:33:08.901Z,100765.13
2022-10-02T13:35:51.050Z,100762.75
2022-10-02T13:38:44.116Z,100764.03
2022-10-02T13:41:45.543Z,100769.38
2022-10-02T13:44:27.289Z,100770.47
2022-10-02T13:47:12.587Z,100773.94
2022-10-02T13:50:06.960Z,100769.41
2022-10-02T13:52:51.727Z,100772.50
2022-10-02T13:55:25.982Z,100775.81
2022-10-02T13:58:02.291Z,100772.00
2022-10-02T14:00:38.005Z,100772.78
2022-10-02T14:03:19.527Z,100772.38
2022-10-02T14:05:58.088Z,100774.22
2022-10-02T14:08:57.243Z,100775.09
2022-10-02T14:11:56.280Z,100775.16
2022-10-02T14:14:22.712Z,100762.91
2022-10-02T14:17:10.092Z,100757.53
2022-10-02T14:19:54.833Z,100768.56
2022-10-02T14:22:51.203Z,100764.78
2022-10-02T14:25:45.480Z,100763.22
2022-10-02T14:28:47.520Z,100773.25
2022-10-02T14:31:39.331Z,100776.69
2022-10-02T14:34:42.874Z,100774.00
2022-10-02T14:37:46.519Z,100778.13
2022-10-02T14:40:18.065Z,100771.69
2022-10-02T14:43:08.993Z,100772.53
2022-10-02T14:45:55.571Z,100772.16
2022-10-02T14:48:29.147Z,100766.03
2022-10-02T14:51:09.559Z,100782.81
2022-10-02T14:53:51.464Z,100784.28
2022-10-02T14:56:40.233Z,100782.03
2022-10-02T14:59:12.835Z,100790.13
2022-10-02T15:02:01.518Z,100788.19
2022-10-02T15:04:39.851Z,100790.47
2022-10-02T15:07:13.602Z,100794.97
2022-10-02T15:10:15.768Z,100788.13
2022-10-02T15:12:55.048Z,100792.72
2022-10-02T15:16:15.545Z,100794.25
2022-10-02T15:18:50.757Z,100787.41
2022-10-02T15:21:41.200Z,100791.22
2022-10-02T15:24:27.811Z,100791.16
2022-10-02T15:27:01.113Z,100791.16
2022-10-02T15:29:46.419Z,100798.44
2022-10-02T15:32:46.385Z,100787.69
2022-10-02T15:35:48.992Z,100787.69
2022-10-02T15:38:44.556Z,100789.50
2022-10-02T15:41:40.488Z,100784.19
2022-10-02T15:44:26.481Z,100795.34
2022-10-02T15:47:07.306Z,100788.47
2022-10-02T15:50:08.496Z,100787.34
2022-10-02T15:52:40.773Z,100792.72
2022-10-02T15:55:36.095Z,100795.00
2022-10-02T15:58:21.189Z,100796.53
2022-10-02T16:01:00.615Z,100810.28
2022-10-02T16:03:46.483Z,100807.91
2022-10-02T16:06:30.024Z,100803.25
2022-10-02T16:09:13.557Z,100809.09
2022-10-02T16:11:57.540Z,100809.44
2022-10-02T16:14:36.426Z,100802.03
2022-10-02T16:17:24.117Z,100812.41
2022-10-02T16:20:13.873Z,100825.47
2022-10-02T16:22:52.430Z,100823.94
2022-10-02T16:25:46.599Z,100826.91
2022-10-02T16:28:28.533Z,100839.81
2022-10-02T16:31:00.051Z,100842.25
2022-10-02T16:34:03.169Z,100840.78
2022-10-02T16:36:40.272Z,100842.91
2022-10-02T16:39:43.383Z,100850.41
2022-10-02T16:42:21.065Z,100854.72
2022-10-02T16:45:25.677Z,100859.28
2022-10-02T16:48:09.125Z,100867.31
2022-10-02T16:51:06.839Z,100861.88
2022-10-02T16:53:56.331Z,100863.75
2022-10-02T16:56:44.253Z,100869.41
2022-10-02T16:59:21.618Z,100870.59
2022-10-02T17:02:16.488Z,100878.81
2022-10-02T17:04:46.587Z,100883.13
2022-10-02T17:07:30.798Z,100897.03
2022-10-02T17:10:29.441Z,100896.91
2022-10-02T17:13:26.149Z,100900.34
2022-10-02T17:16:09.449Z,100908.41
2022-10-02T17:19:08.294Z,100906.81
2022-10-02T17:21:37.755Z,100914.44
2022-10-02T17:24:32.097Z,100919.13
2022-10-02T17:27:13.065Z,100917.94
2022-10-02T17:29:54.576Z,100924.34
2022-10-02T17:32:35.145Z,100932.88
2022-10-02T17:35:01.695Z,100933.13
2022-10-02T17:38:05.917Z,100938.13
2022-10-02T17:40:54.353Z,100937.28
2022-10-02T17:43:37.127Z,100942.25
2022-10-02T17:46:32.324Z,100943.53
2022-10-02T17:49:06.302Z,100949.03
2022-10-02T17:51:57.676Z,100966.94
2022-10-02T17:55:08.259Z,100970.75
2022-10-02T17:58:12.611Z,100972.28
2022-10-02T18:00:53.273Z,100979.91
2022-10-02T18:03:43.216Z,100981.66
2022-10-02T18:06:34.052Z,100979.25
2022-10-02T18:09:24.714Z,100984.00
2022-10-02T18:12:18.515Z,100989.84
2022-10-02T18:15:00.303Z,100998.13
2022-10-02T18:17:52.826Z,101004.63
2022-10-02T18:20:35.329Z,101011.75
2022-10-02T18:23:29.461Z,101015.91
2022-10-02T18:26:29.859Z,101021.09
2022-10-02T18:29:25.768Z,101019.84
2022-10-02T18:32:10.650Z,101014.59
2022-10-02T18:35:05.302Z,101017.16
2022-10-02T18:37:48.011Z,101020.03
2022-10-02T18:40:26.607Z,101031.91
2022-10-02T18:43:15.250Z,101039.25
2022-10-02T18:46:16.592Z,101037.34
2022-10-02T18:49:14.551Z,101050.78
2022-10-02T18:51:59.693Z,101049.16
2022-10-02T18:55:06.546Z,101058.88
2022-10-02T18:58:07.297Z,101060.88
2022-10-02T19:01:11.317Z,101044.09
2022-10-02T19:03:53.479Z,101048.50
2022-10-02T19:06:35.030Z,101052.69
2022-10-02T19:09:07.396Z,101062.03
2022-10-02T19:11:58.336Z,101064.41
2022-10-02T19:14:25.049Z,101064.31
2022-10-02T19:16:57.013Z,101065.59
2022-10-02T19:19:24.374Z,101077.50
2022-10-02T19:21:56.031Z,101078.81
2022-10-02T19:24:30.338Z,101079.69
2022-10-02T19:27:06.927Z,101079.38
2022-10-02T19:29:46.258Z,101086.66
2022-10-02T19:32:27.584Z,101083.00
2022-10-02T19:35:39.041Z,101091.47
2022-10-02T19:38:30.832Z,101099.28
2022-10-02T19:41:00.374Z,101105.09
2022-10-02T19:43:28.728Z,101105.78
2022-10-02T19:45:59.645Z,101111.66
2022-10-02T19:48:28.099Z,101115.78
2022-10-02T19:50:59.509Z,101114.50
2022-10-02T19:53:34.521Z,101122.50
2022-10-02T19:56:11.301Z,101120.56
2022-10-02T19:58:43.464Z,101125.72
2022-10-02T20:01:27.645Z,101137.16
2022-10-02T20:03:58.095Z,101137.81
2022-10-02T20:06:27.055Z,101138.72
2022-10-02T20:09:34.882Z,101142.09
2022-10-02T20:12:10.298Z,101143.47
2022-10-02T20:14:50.519Z,101152.81
2022-10-02T20:17:18.928Z,101141.94
2022-10-02T20:19:52.272Z,101156.22
2022-10-02T20:22:24.676Z,101157.56
2022-10-02T20:24:54.406Z,101153.63
2022-10-02T20:27:39.681Z,101159.31
2022-10-02T20:30:16.736Z,101160.28
2022-10-02T20:32:52.256Z,101158.16
2022-10-02T20:35:34.554Z,101165.06
2022-10-02T20:38:05.318Z,101165.75
2022-10-02T20:40:36.547Z,101169.59
2022-10-02T20:43:21.185Z,101167.31
2022-10-02T20:46:21.573Z,101177.44
2022-10-02T20:49:09.161Z,101178.69
2022-10-02T20:52:01.798Z,101180.88
2022-10-02T20:55:00.782Z,101181.78
2022-10-02T20:58:00.991Z,101193.66
2022-10-02T21:00:40.780Z,101190.13
2022-10-02T21:03:34.100Z,101200.66
2022-10-02T21:06:14.130Z,101194.59
2022-10-02T21:08:55.928Z,101200.34
2022-10-02T21:11:54.365Z,101201.25
2022-10-02T21:14:53.592Z,101204.91
2022-10-02T21:17:38.610Z,101207.84
2022-10-02T21:20:46.292Z,101211.69
2022-10-02T21:23:47.325Z,101216.38
2022-10-02T21:26:39.170Z,101220.78
2022-10-02T21:29:18.113Z,101221.38
2022-10-02T21:32:31.339Z,101221.56
2022-10-02T21:35:26.718Z,101229.44
2022-10-02T21:38:21.478Z,101227.09
2022-10-02T21:41:06.280Z,101232.75
2022-10-02T21:44:04.946Z,101231.00
2022-10-02T21:47:07.167Z,101230.84
2022-10-02T21:50:06.486Z,101235.03
2022-10-02T21:53:11.211Z,101247.41
2022-10-02T21:56:15.513Z,101248.41
2022-10-02T21:59:31.549Z,101254.31
2022-10-02T22:02:11.418Z,101264.56
2022-10-02T22:04:43.819Z,101263.47
2022-10-02T22:07:22.308Z,101263.06
2022-10-02T22:09:58.038Z,101278.13
2022-10-02T22:13:05.691Z,101276.69
2022-10-02T22:15:39.664Z,101270.59
2022-10-02T22:18:20.333Z,101282.44
2022-10-02T22:20:56.075Z,101280.59
2022-10-02T22:23:34.574Z,101292.75
2022-10-02T22:26:31.062Z,101296.50
2022-10-02T22:29:08.718Z,101296.00
2022-10-02T22:32:24.619Z,101296.13
2022-10-02T22:35:06.824Z,101295.91
2022-10-02T22:38:04.584Z,101306.97
2022-10-02T22:40:44.411Z,101303.53
2022-10-02T22:43:20.155Z,101308.84
2022-10-02T22:45:56.366Z,101320.28
2022-10-02T22:48:31.421Z,101316.94
2022-10-02T22:51:11.185Z,101325.69
2022-10-02T22:53:48.187Z,101330.00
2022-10-02T22:56:39.290Z,101328.28
2022-10-02T22:59:13.595Z,101330.47
2022-10-02T23:01:46.966Z,101323.38
2022-10-02T23:04:35.232Z,101334.47
2022-10-02T23:07:14.004Z,101329.56
2022-10-02T23:09:50.323Z,101336.19
2022-10-02T23:12:28.089Z,101335.97
2022-10-02T23:15:13.618Z,101334.47
2022-10-02T23:17:49.155Z,101336.09
2022-10-02T23:20:23.353Z,101331.91
2022-10-02T23:23:28.307Z,101336.78
2022-10-02T23:26:07.213Z,101341.09
2022-10-02T23:28:54.887Z,101352.47
2022-10-02T23:31:24.483Z,101347.66
2022-10-02T23:34:06.737Z,101354.56
2022-10-02T23:36:47.486Z,101356.75
2022-10-02T23:39:27.500Z,101356.13
2022-10-02T23:41:58.361Z,101365.97
2022-10-02T23:44:49.993Z,101360.34
2022-10-02T23:47:23.363Z,101363.84
2022-10-02T23:49:58.566Z,101366.19
2022-10-02T23:52:30.803Z,101361.19
2022-10-02T23:55:22.555Z,101367.88
2022-10-02T23:57:49.023Z,101367.06
